Saint-Roch-Des-Aulnaies, Canada
Current Conditions -  °F | °C
As of 4:00 PM on Wednesday 26 Nov 2014 (Local Time) from CYQB Reporting Station
Overcast Overcast  
Wind Chill: -4°   Ceiling: 13000
Heat Index:   Visibility: 25mi
Dew Point: -7°   Wind: 7mph
Humidity: 60%   Direction: 60°ENE
Pressure: 30.2"   Gusts: NA
Location:  47.32°N, 70.18°W
Report Text: CYQB 262100Z 06006KT 25SM FEW030 FEW080 OVC130 M00/M07 A3020 RMK SC1AC1AS8 SC TR AC TR VIRGA SLP229
Loading
Personal Weather Stations






























Interactive Weather Map New forecast layout! Learn more

10-Day Weather Forecast

Advertisements
Track Severe Weather on mobile